Time;durP1;ratioP1;P1;durP2;ratioP2;P2;SDS_P1;SDS_P2;PMS_P1;PMS_P2;Temp;Humidity;BMP_temperature;BMP_pressure;BME280_temperature;BME280_humidity;BME280_pressure;Samples;Min_cycle;Max_cycle;Signal;HPM_P1;HPM_P2
2023/07/05 00:01:38;;;;;;;7.87;4.97;;;;;;;;;;759568;182;915644;-69
2023/07/05 00:04:04;;;;;;;9.17;4.90;;;;;;;;;;760846;182;1022426;-70
2023/07/05 00:06:30;;;;;;;7.27;5.13;;;;;;;;;;770596;182;908644;-70
2023/07/05 00:08:56;;;;;;;8.25;4.40;;;;;;;;;;765387;182;918004;-65
2023/07/05 00:11:22;;;;;;;9.67;6.70;;;;;;;;;;759515;182;918838;-69
2023/07/05 00:13:48;;;;;;;8.67;5.30;;;;;;;;;;763547;182;919506;-69
2023/07/05 00:16:13;;;;;;;13.10;6.50;;;;;;;;;;760224;182;918358;-66
2023/07/05 00:18:39;;;;;;;10.90;5.60;;;;;;;;;;771235;182;828437;-69
2023/07/05 00:21:05;;;;;;;8.77;5.57;;;;;;;;;;760546;181;914154;-65
2023/07/05 00:23:31;;;;;;;8.23;5.70;;;;;;;;;;762240;182;918732;-66
2023/07/05 00:25:57;;;;;;;7.97;5.10;;;;;;;;;;766628;181;918344;-70
2023/07/05 00:28:23;;;;;;;8.73;5.70;;;;;;;;;;762190;182;920784;-65
2023/07/05 00:30:49;;;;;;;8.70;6.10;;;;;;;;;;760816;182;815029;-69
2023/07/05 00:33:14;;;;;;;8.67;5.30;;;;;;;;;;772711;182;916665;-70
2023/07/05 00:35:48;;;;;;;14.40;5.20;;;;;;;;;;758571;181;917008;-66
2023/07/05 00:38:13;;;;;;;8.60;4.70;;;;;;;;;;764437;182;917726;-69
2023/07/05 00:40:39;;;;;;;8.23;4.78;;;;;;;;;;760621;182;965379;-65
2023/07/05 00:43:05;;;;;;;7.00;5.30;;;;;;;;;;767069;182;890165;-64
2023/07/05 00:45:31;;;;;;;8.67;5.47;;;;;;;;;;760451;182;935323;-69
2023/07/05 00:47:57;;;;;;;7.50;4.90;;;;;;;;;;764150;182;920016;-69
2023/07/05 00:50:24;;;;;;;7.40;4.97;;;;;;;;;;765357;183;919913;-65
2023/07/05 00:52:49;;;;;;;10.90;5.33;;;;;;;;;;760288;182;815760;-65
2023/07/05 00:55:15;;;;;;;9.37;5.50;;;;;;;;;;769521;179;919524;-65
2023/07/05 00:57:41;;;;;;;10.18;5.60;;;;;;;;;;763291;181;913089;-69
2023/07/05 01:00:08;;;;;;;13.00;5.03;;;;;;;;;;771021;182;921214;-69
2023/07/05 01:02:38;;;;;;;7.37;5.03;;;;;;;;;;764562;180;915304;-64
2023/07/05 01:04:59;;;;;;;8.87;5.40;;;;;;;;;;763880;182;915915;-68
2023/07/05 01:07:25;;;;;;;11.00;5.28;;;;;;;;;;768843;182;918350;-64
2023/07/05 01:09:51;;;;;;;11.10;6.07;;;;;;;;;;763926;182;919180;-65
2023/07/05 01:12:18;;;;;;;7.87;5.17;;;;;;;;;;769617;181;919070;-65
2023/07/05 01:14:44;;;;;;;10.00;6.15;;;;;;;;;;763361;182;918701;-64
2023/07/05 01:17:10;;;;;;;14.27;6.50;;;;;;;;;;761055;182;918814;-64
2023/07/05 01:19:53;;;;;;;10.13;6.27;;;;;;;;;;764912;180;919820;-64
2023/07/05 01:22:35;;;;;;;9.90;6.30;;;;;;;;;;767734;180;919388;-70
2023/07/05 01:25:02;;;;;;;12.40;5.60;;;;;;;;;;759105;182;920568;-68
2023/07/05 01:27:30;;;;;;;11.87;5.77;;;;;;;;;;765662;182;920843;-65
2023/07/05 01:29:56;;;;;;;11.77;5.90;;;;;;;;;;764195;182;917079;-65
2023/07/05 01:32:21;;;;;;;8.73;5.60;;;;;;;;;;765806;182;814926;-68
2023/07/05 01:34:48;;;;;;;9.20;5.63;;;;;;;;;;762598;182;918182;-68
2023/07/05 01:37:20;;;;;;;9.38;5.03;;;;;;;;;;768643;182;918650;-65
2023/07/05 01:39:46;;;;;;;8.30;5.03;;;;;;;;;;763479;182;918676;-68
2023/07/05 01:42:11;;;;;;;11.67;5.57;;;;;;;;;;760787;182;818874;-65
2023/07/05 01:44:37;;;;;;;7.70;5.50;;;;;;;;;;763496;183;919359;-65
2023/07/05 01:47:04;;;;;;;7.60;4.23;;;;;;;;;;768219;182;919204;-64
2023/07/05 01:49:32;;;;;;;10.93;5.97;;;;;;;;;;761749;182;817371;-68
2023/07/05 01:51:59;;;;;;;11.97;5.30;;;;;;;;;;762978;182;917320;-64
2023/07/05 01:54:30;;;;;;;8.93;6.30;;;;;;;;;;763285;182;920494;-64
2023/07/05 01:56:55;;;;;;;7.83;5.03;;;;;;;;;;765809;181;921901;-68
2023/07/05 01:59:22;;;;;;;11.63;6.00;;;;;;;;;;762236;181;745381;-65
2023/07/05 02:01:48;;;;;;;16.15;6.07;;;;;;;;;;758420;181;924399;-65
2023/07/05 02:04:14;;;;;;;12.03;6.50;;;;;;;;;;769143;182;916980;-64
2023/07/05 02:06:39;;;;;;;8.63;5.37;;;;;;;;;;765491;182;915554;-70
2023/07/05 02:09:05;;;;;;;17.40;6.00;;;;;;;;;;761439;183;918816;-65
2023/07/05 02:11:31;;;;;;;19.53;6.70;;;;;;;;;;767607;182;919089;-68
2023/07/05 02:13:57;;;;;;;13.60;5.20;;;;;;;;;;765444;182;916172;-68
2023/07/05 02:16:23;;;;;;;14.80;5.37;;;;;;;;;;765176;181;918350;-64
2023/07/05 02:18:49;;;;;;;12.57;5.60;;;;;;;;;;755655;182;919437;-68
2023/07/05 02:21:15;;;;;;;10.70;6.17;;;;;;;;;;755922;185;917530;-64
2023/07/05 02:23:40;;;;;;;14.33;5.27;;;;;;;;;;765154;181;919605;-64
2023/07/05 02:26:06;;;;;;;12.80;6.22;;;;;;;;;;765576;182;915085;-68
2023/07/05 02:28:32;;;;;;;15.20;5.60;;;;;;;;;;764774;182;918475;-64
2023/07/05 02:30:58;;;;;;;12.67;5.93;;;;;;;;;;763210;181;918930;-68
2023/07/05 02:33:24;;;;;;;8.73;5.12;;;;;;;;;;763035;182;820920;-64
2023/07/05 02:35:50;;;;;;;7.10;4.97;;;;;;;;;;765671;182;918717;-69
2023/07/05 02:38:15;;;;;;;13.30;5.43;;;;;;;;;;761275;182;929069;-64
2023/07/05 02:40:41;;;;;;;8.53;5.47;;;;;;;;;;763645;182;919386;-68
2023/07/05 02:43:07;;;;;;;13.93;5.50;;;;;;;;;;763372;182;919231;-68
2023/07/05 02:45:33;;;;;;;12.60;6.17;;;;;;;;;;769900;182;815784;-69
2023/07/05 02:47:59;;;;;;;8.63;5.40;;;;;;;;;;760655;182;918476;-68
2023/07/05 02:50:25;;;;;;;15.47;5.60;;;;;;;;;;765036;182;917753;-64
2023/07/05 02:52:50;;;;;;;14.67;5.70;;;;;;;;;;768535;181;898175;-64
2023/07/05 02:55:16;;;;;;;13.90;7.80;;;;;;;;;;754907;184;918854;-68
2023/07/05 02:57:42;;;;;;;14.20;6.47;;;;;;;;;;753480;182;918949;-64
2023/07/05 03:00:08;;;;;;;10.83;5.83;;;;;;;;;;756571;183;908340;-68
2023/07/05 03:02:34;;;;;;;11.53;5.70;;;;;;;;;;753460;182;912230;-63
2023/07/05 03:05:07;;;;;;;9.32;5.47;;;;;;;;;;761384;182;914297;-68
2023/07/05 03:07:33;;;;;;;9.43;6.40;;;;;;;;;;762000;179;919699;-64
2023/07/05 03:09:59;;;;;;;12.23;6.70;;;;;;;;;;756132;184;744065;-69
2023/07/05 03:12:25;;;;;;;12.37;5.43;;;;;;;;;;756954;182;916395;-69
2023/07/05 03:14:52;;;;;;;13.13;5.70;;;;;;;;;;762508;182;918671;-64
2023/07/05 03:17:16;;;;;;;12.43;6.30;;;;;;;;;;765943;182;915652;-64
2023/07/05 03:19:42;;;;;;;16.13;5.30;;;;;;;;;;753433;183;888929;-64
2023/07/05 03:22:08;;;;;;;16.13;5.17;;;;;;;;;;762045;180;919111;-67
2023/07/05 03:24:34;;;;;;;12.00;6.60;;;;;;;;;;764348;182;918798;-67
2023/07/05 03:27:00;;;;;;;26.37;6.50;;;;;;;;;;772297;182;865922;-68
2023/07/05 03:29:26;;;;;;;13.70;6.00;;;;;;;;;;762210;182;919003;-68
2023/07/05 03:31:52;;;;;;;9.40;5.70;;;;;;;;;;763768;182;921606;-64
2023/07/05 03:34:17;;;;;;;11.37;6.27;;;;;;;;;;768688;182;896533;-63
2023/07/05 03:36:43;;;;;;;22.10;5.80;;;;;;;;;;764121;182;921265;-63
2023/07/05 03:39:09;;;;;;;13.27;6.20;;;;;;;;;;748571;183;830445;-64
2023/07/05 03:41:35;;;;;;;19.10;5.57;;;;;;;;;;768099;183;948716;-68
2023/07/05 03:44:01;;;;;;;11.83;6.37;;;;;;;;;;758041;182;919461;-69
2023/07/05 03:46:27;;;;;;;9.35;5.75;;;;;;;;;;750644;182;914250;-63
2023/07/05 03:48:52;;;;;;;13.00;6.50;;;;;;;;;;764628;182;918692;-68
2023/07/05 03:51:18;;;;;;;12.50;7.50;;;;;;;;;;758858;184;913932;-68
2023/07/05 03:53:44;;;;;;;10.97;5.67;;;;;;;;;;757326;181;917990;-68
2023/07/05 03:56:10;;;;;;;17.10;8.40;;;;;;;;;;763854;181;912787;-64
2023/07/05 03:58:36;;;;;;;11.93;6.67;;;;;;;;;;770894;182;907255;-64
2023/07/05 04:01:04;;;;;;;12.27;6.73;;;;;;;;;;765935;182;914776;-68
2023/07/05 04:03:30;;;;;;;11.40;6.70;;;;;;;;;;761873;181;823081;-69
2023/07/05 04:05:56;;;;;;;13.93;7.80;;;;;;;;;;765865;182;915283;-68
2023/07/05 04:08:22;;;;;;;8.87;5.60;;;;;;;;;;760023;182;913553;-63
2023/07/05 04:10:48;;;;;;;9.80;6.17;;;;;;;;;;760771;182;896282;-69
2023/07/05 04:13:14;;;;;;;14.00;6.80;;;;;;;;;;761908;182;911468;-64
2023/07/05 04:15:40;;;;;;;15.83;6.77;;;;;;;;;;767486;181;911560;-69
2023/07/05 04:18:05;;;;;;;13.20;5.90;;;;;;;;;;762510;182;914652;-65
2023/07/05 04:20:31;;;;;;;11.57;6.63;;;;;;;;;;762265;182;903560;-69
2023/07/05 04:22:57;;;;;;;11.97;5.97;;;;;;;;;;767537;181;914081;-63
2023/07/05 04:25:23;;;;;;;14.20;6.80;;;;;;;;;;758207;182;944305;-64
2023/07/05 04:27:49;;;;;;;10.13;5.70;;;;;;;;;;766465;181;921017;-65
2023/07/05 04:30:15;;;;;;;13.53;7.73;;;;;;;;;;771294;182;918757;-64
2023/07/05 04:32:40;;;;;;;16.30;8.02;;;;;;;;;;759964;182;921402;-64
2023/07/05 04:35:06;;;;;;;16.73;7.47;;;;;;;;;;768276;180;918696;-69
2023/07/05 04:37:32;;;;;;;11.67;6.90;;;;;;;;;;760914;182;919420;-64
2023/07/05 04:39:58;;;;;;;14.90;7.67;;;;;;;;;;761773;183;917955;-64
2023/07/05 04:42:24;;;;;;;11.80;6.78;;;;;;;;;;760589;181;919660;-64
2023/07/05 04:44:50;;;;;;;13.43;7.40;;;;;;;;;;764764;181;919062;-63
2023/07/05 04:47:16;;;;;;;11.03;7.00;;;;;;;;;;767777;182;919117;-64
2023/07/05 04:49:42;;;;;;;10.93;7.50;;;;;;;;;;763239;182;919257;-64
2023/07/05 04:52:08;;;;;;;10.33;7.53;;;;;;;;;;749019;186;919366;-65
2023/07/05 04:54:34;;;;;;;8.93;6.67;;;;;;;;;;763697;182;920408;-64
2023/07/05 04:56:59;;;;;;;12.60;8.07;;;;;;;;;;763781;181;918677;-64
2023/07/05 04:59:25;;;;;;;9.48;6.72;;;;;;;;;;756190;182;919856;-65
2023/07/05 05:01:51;;;;;;;13.33;7.73;;;;;;;;;;761410;181;918271;-69
2023/07/05 05:04:17;;;;;;;13.43;8.10;;;;;;;;;;765803;182;918816;-65
2023/07/05 05:06:44;;;;;;;11.30;6.87;;;;;;;;;;764701;182;840570;-69
2023/07/05 05:09:09;;;;;;;13.40;7.57;;;;;;;;;;759057;182;919046;-65
2023/07/05 05:11:34;;;;;;;12.13;6.67;;;;;;;;;;767483;182;811479;-65
2023/07/05 05:14:00;;;;;;;12.10;7.97;;;;;;;;;;763651;181;917761;-64
2023/07/05 05:16:26;;;;;;;10.73;7.43;;;;;;;;;;766476;180;919258;-69
2023/07/05 05:18:52;;;;;;;18.50;7.83;;;;;;;;;;769286;182;917486;-66
2023/07/05 05:21:18;;;;;;;13.13;7.30;;;;;;;;;;762324;182;919684;-68
2023/07/05 05:23:44;;;;;;;10.90;7.13;;;;;;;;;;747618;186;932894;-66
2023/07/05 05:26:10;;;;;;;18.37;8.30;;;;;;;;;;763511;182;872437;-66
2023/07/05 05:28:36;;;;;;;12.97;7.90;;;;;;;;;;761028;182;916372;-69
2023/07/05 05:31:02;;;;;;;13.10;8.20;;;;;;;;;;761420;182;918693;-65
2023/07/05 05:33:28;;;;;;;12.90;7.70;;;;;;;;;;763264;182;916397;-67
2023/07/05 05:35:54;;;;;;;13.73;8.20;;;;;;;;;;768160;182;920780;-65
2023/07/05 05:38:19;;;;;;;11.00;7.30;;;;;;;;;;763861;182;930481;-68
2023/07/05 05:40:46;;;;;;;14.13;6.87;;;;;;;;;;767553;181;917343;-64
2023/07/05 05:43:11;;;;;;;12.27;8.40;;;;;;;;;;770472;182;912230;-65
2023/07/05 05:45:37;;;;;;;14.83;7.73;;;;;;;;;;760789;182;801647;-68
2023/07/05 05:48:03;;;;;;;8.77;6.33;;;;;;;;;;760040;182;919137;-68
2023/07/05 05:50:30;;;;;;;11.63;7.80;;;;;;;;;;768422;182;919427;-68
2023/07/05 05:52:55;;;;;;;11.43;7.57;;;;;;;;;;757481;181;921188;-67
2023/07/05 05:55:21;;;;;;;11.27;8.30;;;;;;;;;;762641;180;918575;-64
2023/07/05 05:57:46;;;;;;;16.97;7.70;;;;;;;;;;762874;181;919960;-65
2023/07/05 06:00:13;;;;;;;11.30;6.20;;;;;;;;;;769810;181;918623;-65
2023/07/05 06:02:38;;;;;;;12.97;7.40;;;;;;;;;;764510;181;918809;-64
2023/07/05 06:05:05;;;;;;;10.90;6.83;;;;;;;;;;757433;181;918928;-65
2023/07/05 06:07:30;;;;;;;11.03;6.93;;;;;;;;;;768865;182;930700;-65
2023/07/05 06:09:56;;;;;;;11.10;7.10;;;;;;;;;;759324;182;830362;-68
2023/07/05 06:12:22;;;;;;;8.70;6.60;;;;;;;;;;765042;181;920302;-67
2023/07/05 06:14:48;;;;;;;24.80;8.40;;;;;;;;;;763377;180;920420;-67
2023/07/05 06:17:14;;;;;;;13.37;7.00;;;;;;;;;;754610;182;918940;-66
2023/07/05 06:19:39;;;;;;;12.48;7.07;;;;;;;;;;763883;181;920594;-64
2023/07/05 06:22:06;;;;;;;13.07;7.73;;;;;;;;;;762003;182;917737;-66
2023/07/05 06:24:32;;;;;;;14.53;7.77;;;;;;;;;;767040;183;713393;-65
2023/07/05 06:26:58;;;;;;;10.20;7.23;;;;;;;;;;760268;182;920016;-65
2023/07/05 06:29:23;;;;;;;11.70;7.07;;;;;;;;;;760561;181;918953;-62
2023/07/05 06:31:49;;;;;;;12.33;7.10;;;;;;;;;;766913;181;815804;-64
2023/07/05 06:34:15;;;;;;;12.27;7.00;;;;;;;;;;762824;181;936402;-64
2023/07/05 06:36:41;;;;;;;9.80;6.70;;;;;;;;;;762404;182;918679;-62
2023/07/05 06:39:07;;;;;;;12.67;8.03;;;;;;;;;;763704;181;919403;-63
2023/07/05 06:41:33;;;;;;;12.17;7.10;;;;;;;;;;762833;182;917918;-63
2023/07/05 06:43:59;;;;;;;14.50;7.43;;;;;;;;;;764244;182;815041;-62
2023/07/05 06:46:24;;;;;;;10.27;6.10;;;;;;;;;;762226;182;915896;-62
2023/07/05 06:48:50;;;;;;;16.07;7.57;;;;;;;;;;762834;183;842038;-62
2023/07/05 06:51:16;;;;;;;10.37;5.87;;;;;;;;;;759790;182;918586;-62
2023/07/05 06:53:42;;;;;;;17.33;7.97;;;;;;;;;;762531;182;919043;-65
2023/07/05 06:56:09;;;;;;;14.70;7.10;;;;;;;;;;769217;182;920169;-62
2023/07/05 06:58:34;;;;;;;14.63;7.20;;;;;;;;;;764323;182;918969;-62
2023/07/05 07:01:00;;;;;;;10.63;7.10;;;;;;;;;;748689;186;920199;-64
2023/07/05 07:03:25;;;;;;;10.70;6.90;;;;;;;;;;760367;182;918834;-62
2023/07/05 07:05:52;;;;;;;8.90;7.10;;;;;;;;;;760072;182;917930;-62
2023/07/05 07:08:17;;;;;;;11.80;7.60;;;;;;;;;;764321;182;918269;-62
2023/07/05 07:10:43;;;;;;;17.70;7.03;;;;;;;;;;769276;182;920945;-63
2023/07/05 07:13:09;;;;;;;10.40;7.00;;;;;;;;;;761111;182;943293;-66
2023/07/05 07:15:35;;;;;;;8.87;6.27;;;;;;;;;;763667;181;913598;-64
2023/07/05 07:18:00;;;;;;;11.83;7.80;;;;;;;;;;755817;182;919140;-61
2023/07/05 07:20:26;;;;;;;10.00;6.43;;;;;;;;;;765793;182;921147;-66
2023/07/05 07:22:52;;;;;;;12.00;6.07;;;;;;;;;;760265;182;908544;-63
2023/07/05 07:25:18;;;;;;;10.83;6.90;;;;;;;;;;763254;182;920192;-62
2023/07/05 07:27:44;;;;;;;10.70;7.00;;;;;;;;;;771201;182;823283;-64
2023/07/05 07:30:11;;;;;;;11.77;6.73;;;;;;;;;;760378;182;926273;-63
2023/07/05 07:32:37;;;;;;;12.43;5.63;;;;;;;;;;765445;181;768702;-62
2023/07/05 07:35:03;;;;;;;11.67;7.60;;;;;;;;;;763797;183;918568;-63
2023/07/05 07:37:32;;;;;;;11.30;6.50;;;;;;;;;;760973;182;913902;-62
2023/07/05 07:39:58;;;;;;;9.13;6.00;;;;;;;;;;750851;184;898956;-62
2023/07/05 07:42:24;;;;;;;9.80;6.83;;;;;;;;;;756168;182;919681;-61
2023/07/05 07:44:50;;;;;;;13.27;7.57;;;;;;;;;;766797;182;817285;-61
2023/07/05 07:47:16;;;;;;;11.67;7.00;;;;;;;;;;762491;182;915038;-63
2023/07/05 07:49:42;;;;;;;11.40;6.43;;;;;;;;;;759809;182;918171;-64
2023/07/05 07:52:10;;;;;;;10.27;7.70;;;;;;;;;;768491;182;850408;-61
2023/07/05 07:54:34;;;;;;;11.53;6.93;;;;;;;;;;764019;181;914260;-58
2023/07/05 07:57:00;;;;;;;11.43;6.67;;;;;;;;;;754437;182;912724;-62
2023/07/05 07:59:25;;;;;;;10.33;6.50;;;;;;;;;;753427;183;916146;-63
2023/07/05 08:01:51;;;;;;;9.30;5.97;;;;;;;;;;771591;180;902286;-62
2023/07/05 08:04:17;;;;;;;12.87;7.20;;;;;;;;;;766961;182;911818;-62
2023/07/05 08:06:43;;;;;;;9.23;5.70;;;;;;;;;;764201;182;973404;-63
2023/07/05 08:09:09;;;;;;;10.10;5.90;;;;;;;;;;769215;182;917875;-64
2023/07/05 08:11:35;;;;;;;10.80;6.50;;;;;;;;;;765842;181;816826;-65
2023/07/05 08:14:00;;;;;;;14.83;6.27;;;;;;;;;;760957;181;920636;-63
2023/07/05 08:16:26;;;;;;;7.50;5.77;;;;;;;;;;766675;182;815978;-63
2023/07/05 08:18:52;;;;;;;10.90;5.90;;;;;;;;;;768006;181;813809;-64
2023/07/05 08:21:18;;;;;;;8.17;5.70;;;;;;;;;;766145;182;919503;-64
2023/07/05 08:23:44;;;;;;;9.13;5.82;;;;;;;;;;765008;182;940286;-63
2023/07/05 08:26:10;;;;;;;8.60;6.00;;;;;;;;;;751664;186;919824;-62
2023/07/05 08:28:37;;;;;;;8.27;5.40;;;;;;;;;;752460;184;919381;-64
2023/07/05 08:31:02;;;;;;;10.53;5.70;;;;;;;;;;764452;181;916456;-63
2023/07/05 08:33:28;;;;;;;9.53;6.00;;;;;;;;;;768569;181;915450;-64
2023/07/05 08:36:00;;;;;;;10.07;6.30;;;;;;;;;;752823;183;918554;-64
2023/07/05 08:38:25;;;;;;;10.80;6.50;;;;;;;;;;764792;181;919026;-64
2023/07/05 08:40:52;;;;;;;8.88;6.07;;;;;;;;;;768763;182;918774;-64
2023/07/05 08:43:21;;;;;;;9.33;6.50;;;;;;;;;;762424;182;713556;-64
2023/07/05 08:45:47;;;;;;;11.07;6.53;;;;;;;;;;765086;182;919273;-63
2023/07/05 08:48:12;;;;;;;9.93;6.40;;;;;;;;;;762751;181;920866;-64
2023/07/05 08:50:38;;;;;;;7.23;5.07;;;;;;;;;;764776;182;916415;-62
2023/07/05 08:53:05;;;;;;;8.33;6.73;;;;;;;;;;760707;181;818238;-63
2023/07/05 08:55:45;;;;;;;11.10;6.33;;;;;;;;;;761660;182;919120;-61
2023/07/05 08:58:11;;;;;;;16.20;6.40;;;;;;;;;;762448;182;919058;-66
2023/07/05 09:00:38;;;;;;;10.20;5.87;;;;;;;;;;767864;181;918175;-62
2023/07/05 09:03:04;;;;;;;12.80;5.70;;;;;;;;;;754401;184;921074;-62
2023/07/05 09:05:30;;;;;;;13.03;5.70;;;;;;;;;;753781;182;918384;-64
2023/07/05 09:08:00;;;;;;;8.47;6.43;;;;;;;;;;754866;182;928178;-65
2023/07/05 09:10:28;;;;;;;12.23;7.07;;;;;;;;;;751759;186;931570;-63
2023/07/05 09:12:59;;;;;;;8.50;5.20;;;;;;;;;;759542;182;917469;-63
2023/07/05 09:15:25;;;;;;;11.00;6.47;;;;;;;;;;762536;181;916559;-62
2023/07/05 09:17:51;;;;;;;8.90;5.43;;;;;;;;;;762265;182;819649;-64
2023/07/05 09:20:21;;;;;;;12.27;6.80;;;;;;;;;;771419;181;819590;-63
2023/07/05 09:22:47;;;;;;;8.67;6.00;;;;;;;;;;769455;180;911133;-63
2023/07/05 09:25:13;;;;;;;12.80;5.80;;;;;;;;;;761135;182;916855;-62
2023/07/05 09:27:38;;;;;;;6.80;5.10;;;;;;;;;;754154;185;920418;-63
2023/07/05 09:30:06;;;;;;;8.17;6.50;;;;;;;;;;759285;182;914113;-64
2023/07/05 09:32:31;;;;;;;7.10;5.47;;;;;;;;;;758765;183;911228;-65
2023/07/05 09:34:58;;;;;;;8.17;5.50;;;;;;;;;;763063;182;913592;-64
2023/07/05 09:37:23;;;;;;;8.10;4.80;;;;;;;;;;766238;182;909818;-64
2023/07/05 09:39:54;;;;;;;10.97;5.60;;;;;;;;;;769146;181;887177;-64
2023/07/05 09:42:21;;;;;;;7.10;5.00;;;;;;;;;;764690;182;914494;-64
2023/07/05 09:44:47;;;;;;;8.77;6.10;;;;;;;;;;765084;182;909430;-64
2023/07/05 09:47:13;;;;;;;10.43;6.37;;;;;;;;;;756476;182;914497;-65
2023/07/05 09:49:39;;;;;;;10.83;5.70;;;;;;;;;;763465;182;919091;-65
2023/07/05 09:52:08;;;;;;;10.65;6.43;;;;;;;;;;765134;182;917903;-64
2023/07/05 09:54:34;;;;;;;11.53;5.43;;;;;;;;;;764772;182;929211;-64
2023/07/05 09:57:04;;;;;;;8.13;5.90;;;;;;;;;;766577;181;920218;-65
2023/07/05 09:59:27;;;;;;;7.00;5.23;;;;;;;;;;764044;182;945335;-64
2023/07/05 10:01:55;;;;;;;7.00;5.13;;;;;;;;;;768647;182;819192;-66
2023/07/05 10:04:24;;;;;;;9.47;5.67;;;;;;;;;;759877;179;919564;-65
2023/07/05 10:06:50;;;;;;;9.33;5.73;;;;;;;;;;745527;182;816635;-65
2023/07/05 10:09:15;;;;;;;12.10;6.13;;;;;;;;;;761703;182;918110;-64
2023/07/05 10:11:42;;;;;;;8.60;6.07;;;;;;;;;;758677;182;921784;-65
2023/07/05 10:14:10;;;;;;;9.37;5.10;;;;;;;;;;763611;182;918519;-64
2023/07/05 10:16:42;;;;;;;9.27;5.77;;;;;;;;;;762609;182;919377;-64
2023/07/05 10:19:07;;;;;;;13.87;6.90;;;;;;;;;;758043;181;920877;-65
2023/07/05 10:21:33;;;;;;;7.60;5.40;;;;;;;;;;750657;186;918822;-65
2023/07/05 10:23:59;;;;;;;9.00;6.27;;;;;;;;;;750681;181;919766;-65
2023/07/05 10:26:25;;;;;;;9.10;6.63;;;;;;;;;;763887;181;918936;-64
2023/07/05 10:28:53;;;;;;;7.70;5.63;;;;;;;;;;771120;182;918244;-65
2023/07/05 10:31:33;;;;;;;8.43;6.30;;;;;;;;;;760662;180;918907;-65
2023/07/05 10:34:03;;;;;;;10.00;5.13;;;;;;;;;;765283;181;919506;-66
2023/07/05 10:36:29;;;;;;;9.87;5.53;;;;;;;;;;758265;182;918104;-66
2023/07/05 10:38:55;;;;;;;7.70;5.33;;;;;;;;;;765069;182;917918;-67
2023/07/05 10:41:25;;;;;;;7.63;5.47;;;;;;;;;;762650;181;923848;-66
2023/07/05 10:43:51;;;;;;;7.10;5.67;;;;;;;;;;760177;182;848678;-67
2023/07/05 10:46:17;;;;;;;8.57;6.87;;;;;;;;;;761290;182;855375;-66
2023/07/05 10:48:43;;;;;;;6.37;4.53;;;;;;;;;;761766;182;918748;-66
2023/07/05 10:51:14;;;;;;;6.97;5.00;;;;;;;;;;761911;182;938919;-66
2023/07/05 10:53:40;;;;;;;8.10;5.43;;;;;;;;;;757127;182;916860;-65
2023/07/05 10:56:06;;;;;;;13.20;6.40;;;;;;;;;;757364;182;817762;-66
2023/07/05 10:58:36;;;;;;;9.37;6.13;;;;;;;;;;759687;183;918501;-66
2023/07/05 11:01:01;;;;;;;9.03;6.63;;;;;;;;;;761829;182;918873;-66
2023/07/05 11:03:32;;;;;;;9.83;6.10;;;;;;;;;;765210;182;918612;-66
2023/07/05 11:05:58;;;;;;;8.30;6.17;;;;;;;;;;764963;182;910185;-65
2023/07/05 11:08:24;;;;;;;9.90;6.37;;;;;;;;;;755656;181;922622;-65
2023/07/05 11:10:50;;;;;;;10.83;5.87;;;;;;;;;;752747;182;919387;-66
2023/07/05 11:13:16;;;;;;;11.23;6.50;;;;;;;;;;754677;182;914789;-66
2023/07/05 11:15:42;;;;;;;7.63;5.37;;;;;;;;;;769114;182;919545;-65
2023/07/05 11:18:07;;;;;;;9.67;6.70;;;;;;;;;;762563;182;915100;-65
2023/07/05 11:20:33;;;;;;;10.03;6.63;;;;;;;;;;760420;182;823244;-65
2023/07/05 11:22:59;;;;;;;7.60;6.00;;;;;;;;;;753684;186;946764;-63
2023/07/05 11:25:31;;;;;;;15.00;6.43;;;;;;;;;;758783;182;966632;-62
2023/07/05 11:27:57;;;;;;;9.70;5.90;;;;;;;;;;759586;182;912954;-64
2023/07/05 11:30:28;;;;;;;11.00;6.80;;;;;;;;;;760805;182;917572;-65
2023/07/05 11:33:16;;;;;;;9.33;6.70;;;;;;;;;;768337;181;917009;-65
2023/07/05 11:35:45;;;;;;;8.30;6.07;;;;;;;;;;767030;182;759350;-67
2023/07/05 11:38:09;;;;;;;8.80;5.70;;;;;;;;;;770758;181;918855;-66
2023/07/05 11:40:41;;;;;;;9.83;5.20;;;;;;;;;;763743;181;919225;-66
2023/07/05 11:43:13;;;;;;;15.03;7.10;;;;;;;;;;764610;181;918939;-65
2023/07/05 11:45:45;;;;;;;8.80;5.78;;;;;;;;;;765235;181;982155;-64
2023/07/05 11:48:10;;;;;;;7.90;5.30;;;;;;;;;;759842;182;917853;-64
2023/07/05 11:50:36;;;;;;;12.93;6.50;;;;;;;;;;754529;185;886479;-64
2023/07/05 11:53:06;;;;;;;10.70;7.00;;;;;;;;;;752160;183;919123;-64
2023/07/05 11:55:28;;;;;;;7.53;6.00;;;;;;;;;;764645;182;828050;-63
2023/07/05 11:57:55;;;;;;;8.57;5.97;;;;;;;;;;760892;182;920663;-62
2023/07/05 12:00:36;;;;;;;8.40;5.60;;;;;;;;;;761453;182;919317;-62
2023/07/05 12:03:02;;;;;;;8.43;5.33;;;;;;;;;;754689;182;902717;-65
2023/07/05 12:05:28;;;;;;;8.30;6.20;;;;;;;;;;753798;185;918224;-64
2023/07/05 12:07:57;;;;;;;6.57;5.30;;;;;;;;;;759670;182;919409;-64
2023/07/05 12:10:23;;;;;;;7.80;5.30;;;;;;;;;;762238;182;918222;-65
2023/07/05 12:12:49;;;;;;;7.40;5.13;;;;;;;;;;764192;182;817154;-64
2023/07/05 12:15:16;;;;;;;8.90;5.70;;;;;;;;;;767463;182;905819;-65
2023/07/05 12:17:41;;;;;;;12.03;5.80;;;;;;;;;;757795;181;815341;-66
2023/07/05 12:20:12;;;;;;;9.80;5.90;;;;;;;;;;760634;182;919154;-64
2023/07/05 12:22:38;;;;;;;9.43;5.40;;;;;;;;;;761065;182;917794;-65
2023/07/05 12:25:04;;;;;;;7.77;6.13;;;;;;;;;;766127;181;919406;-67
2023/07/05 12:27:30;;;;;;;8.30;5.67;;;;;;;;;;762834;182;846199;-65
2023/07/05 12:29:56;;;;;;;10.20;5.27;;;;;;;;;;759407;182;822599;-66
2023/07/05 12:32:23;;;;;;;9.10;6.60;;;;;;;;;;765124;182;916550;-65
2023/07/05 12:34:48;;;;;;;6.97;5.43;;;;;;;;;;762665;181;917785;-64
2023/07/05 12:37:30;;;;;;;9.43;5.90;;;;;;;;;;755107;183;935694;-64
2023/07/05 12:39:55;;;;;;;9.07;6.20;;;;;;;;;;761676;182;918778;-69
2023/07/05 12:42:21;;;;;;;7.93;5.83;;;;;;;;;;764178;181;919141;-64
2023/07/05 12:44:47;;;;;;;9.30;6.23;;;;;;;;;;740510;179;917820;-71
2023/07/05 12:47:14;;;;;;;8.50;6.07;;;;;;;;;;740776;186;911743;-70
2023/07/05 12:49:40;;;;;;;9.17;6.53;;;;;;;;;;740613;186;920062;-71
2023/07/05 12:52:06;;;;;;;8.10;6.13;;;;;;;;;;743575;188;925455;-70
2023/07/05 12:54:32;;;;;;;8.17;5.43;;;;;;;;;;739040;187;920019;-71
2023/07/05 12:56:59;;;;;;;7.53;5.70;;;;;;;;;;737379;188;890063;-70
2023/07/05 12:59:25;;;;;;;9.07;6.40;;;;;;;;;;742742;187;912063;-69
2023/07/05 13:01:51;;;;;;;5.77;4.70;;;;;;;;;;739736;189;910869;-70
2023/07/05 13:04:17;;;;;;;6.70;4.95;;;;;;;;;;737860;186;920716;-70
2023/07/05 13:06:43;;;;;;;7.43;5.27;;;;;;;;;;742939;186;915040;-71
2023/07/05 13:09:09;;;;;;;8.80;5.73;;;;;;;;;;737120;189;1021498;-70
2023/07/05 13:11:36;;;;;;;8.23;4.27;;;;;;;;;;736702;186;919312;-70
2023/07/05 13:14:00;;;;;;;5.90;4.97;;;;;;;;;;738243;189;923780;-70
2023/07/05 13:16:27;;;;;;;7.27;5.30;;;;;;;;;;748718;186;717036;-70
2023/07/05 13:18:59;;;;;;;7.50;5.50;;;;;;;;;;736628;188;816245;-70
2023/07/05 13:21:25;;;;;;;9.10;4.87;;;;;;;;;;737828;189;839914;-70
2023/07/05 13:23:50;;;;;;;8.20;5.60;;;;;;;;;;735392;187;1621932;-71
2023/07/05 13:26:17;;;;;;;6.87;5.30;;;;;;;;;;738341;188;920046;-70
2023/07/05 13:28:44;;;;;;;6.67;5.43;;;;;;;;;;735913;189;919488;-70
2023/07/05 13:31:09;;;;;;;8.43;5.83;;;;;;;;;;736173;189;913444;-70
2023/07/05 13:33:35;;;;;;;8.30;6.00;;;;;;;;;;743828;186;918079;-70
2023/07/05 13:36:01;;;;;;;9.07;5.20;;;;;;;;;;737494;186;919871;-69
2023/07/05 13:38:29;;;;;;;7.73;4.80;;;;;;;;;;737497;186;918825;-70
2023/07/05 13:40:52;;;;;;;55.17;9.70;;;;;;;;;;742912;186;916931;-70
2023/07/05 13:43:18;;;;;;;9.40;5.23;;;;;;;;;;737585;186;893862;-71
2023/07/05 13:45:44;;;;;;;8.80;4.93;;;;;;;;;;736720;189;918013;-71
2023/07/05 13:48:10;;;;;;;6.83;5.03;;;;;;;;;;764077;179;816498;-61
2023/07/05 13:50:36;;;;;;;6.30;4.80;;;;;;;;;;766226;181;912571;-62
2023/07/05 13:53:02;;;;;;;8.90;5.20;;;;;;;;;;764966;183;905122;-61
2023/07/05 13:55:29;;;;;;;8.07;5.70;;;;;;;;;;764502;183;914180;-63
2023/07/05 13:57:54;;;;;;;8.00;5.50;;;;;;;;;;765712;183;855955;-62
2023/07/05 14:00:20;;;;;;;6.57;4.60;;;;;;;;;;764929;182;903704;-62
2023/07/05 14:02:47;;;;;;;6.80;5.07;;;;;;;;;;765800;182;826132;-60
2023/07/05 14:05:12;;;;;;;6.97;4.80;;;;;;;;;;770406;182;916189;-60
2023/07/05 14:07:38;;;;;;;13.83;5.10;;;;;;;;;;766386;183;919799;-61
2023/07/05 14:10:05;;;;;;;8.03;5.70;;;;;;;;;;764766;183;825846;-62
2023/07/05 14:12:30;;;;;;;8.10;5.40;;;;;;;;;;771576;183;808841;-59
2023/07/05 14:14:56;;;;;;;7.27;5.13;;;;;;;;;;764894;183;875847;-61
2023/07/05 14:17:22;;;;;;;7.40;5.07;;;;;;;;;;764152;183;924730;-58
2023/07/05 14:19:47;;;;;;;8.20;6.07;;;;;;;;;;764262;183;910057;-58